createdAt,value
2022-11-20T00:00:01.311Z,1011.2
2022-11-20T00:01:05.391Z,1011.1
2022-11-20T00:02:01.278Z,1011.2
2022-11-20T00:03:01.212Z,1011.2
2022-11-20T00:04:01.284Z,1011.2
2022-11-20T00:05:00.954Z,1011.2
2022-11-20T00:06:01.834Z,1011.2
2022-11-20T00:07:01.252Z,1011.2
2022-11-20T00:08:01.495Z,1011.2
2022-11-20T00:09:01.497Z,1011.2
2022-11-20T00:10:01.262Z,1011.2
2022-11-20T00:11:04.218Z,1011.2
2022-11-20T00:12:01.224Z,1011.2
2022-11-20T00:13:00.930Z,1011.2
2022-11-20T00:14:01.605Z,1011.2
2022-11-20T00:15:01.266Z,1011.2
2022-11-20T00:16:03.399Z,1011.2
2022-11-20T00:17:00.943Z,1011.2
2022-11-20T00:18:00.915Z,1011.2
2022-11-20T00:19:01.974Z,1011.2
2022-11-20T00:20:00.928Z,1011.2
2022-11-20T00:21:02.844Z,1011.2
2022-11-20T00:22:01.220Z,1011.2
2022-11-20T00:23:00.904Z,1011.2
2022-11-20T00:24:00.964Z,1011.3
2022-11-20T00:25:01.230Z,1011.3
2022-11-20T00:26:03.724Z,1011.4
2022-11-20T00:27:00.918Z,1011.4
2022-11-20T00:28:01.237Z,1011.4
2022-11-20T00:29:01.968Z,1011.4
2022-11-20T00:30:01.448Z,1011.4
2022-11-20T00:31:02.807Z,1011.4
2022-11-20T00:32:00.920Z,1011.4
2022-11-20T00:33:00.933Z,1011.4
2022-11-20T00:34:00.931Z,1011.4
2022-11-20T00:35:01.225Z,1011.4
2022-11-20T00:36:02.208Z,1011.4
2022-11-20T00:37:01.215Z,1011.4
2022-11-20T00:38:00.932Z,1011.4
2022-11-20T00:39:01.324Z,1011.4
2022-11-20T00:40:00.918Z,1011.4
2022-11-20T00:41:04.218Z,1011.4
2022-11-20T00:42:00.949Z,1011.4
2022-11-20T00:43:01.222Z,1011.4
2022-11-20T00:44:01.339Z,1011.4
2022-11-20T00:45:01.228Z,1011.4
2022-11-20T00:46:03.672Z,1011.3
2022-11-20T00:47:01.231Z,1011.3
2022-11-20T00:48:01.204Z,1011.4
2022-11-20T00:49:00.918Z,1011.4
2022-11-20T00:50:00.927Z,1011.4
2022-11-20T00:51:01.610Z,1011.4
2022-11-20T00:52:01.051Z,1011.4
2022-11-20T00:53:00.930Z,1011.3
2022-11-20T00:54:01.238Z,1011.4
2022-11-20T00:55:01.225Z,1011.3
2022-11-20T00:56:03.973Z,1011.4
2022-11-20T00:57:00.912Z,1011.4
2022-11-20T00:58:04.403Z,1011.4
2022-11-20T00:59:01.499Z,1011.4
2022-11-20T01:00:01.282Z,1011.4
2022-11-20T01:01:01.567Z,1011.4
2022-11-20T01:02:00.946Z,1011.4
2022-11-20T01:03:01.197Z,1011.4
2022-11-20T01:04:00.947Z,1011.4
2022-11-20T01:05:00.925Z,1011.4
2022-11-20T01:06:01.877Z,1011.4
2022-11-20T01:07:01.296Z,1011.5
2022-11-20T01:08:00.920Z,1011.4
2022-11-20T01:09:05.208Z,1011.4
2022-11-20T01:10:00.949Z,1011.4
2022-11-20T01:11:02.249Z,1011.4
2022-11-20T01:12:01.252Z,1011.4
2022-11-20T01:13:00.918Z,1011.4
2022-11-20T01:14:03.595Z,1011.3
2022-11-20T01:15:00.963Z,1011.3
2022-11-20T01:16:03.738Z,1011.3
2022-11-20T01:17:01.209Z,1011.2
2022-11-20T01:18:01.234Z,1011.3
2022-11-20T01:19:04.459Z,1011.3
2022-11-20T01:20:01.211Z,1011.3
2022-11-20T01:21:02.770Z,1011.3
2022-11-20T01:22:00.946Z,1011.3
2022-11-20T01:23:00.928Z,1011.3
2022-11-20T01:24:01.710Z,1011.2
2022-11-20T01:25:01.103Z,1011.2
2022-11-20T01:26:02.497Z,1011.2
2022-11-20T01:27:01.238Z,1011.2
2022-11-20T01:28:00.951Z,1011.3
2022-11-20T01:29:02.867Z,1011.3
2022-11-20T01:30:01.616Z,1011.3
2022-11-20T01:31:01.256Z,1011.3
2022-11-20T01:32:01.232Z,1011.3
2022-11-20T01:33:01.239Z,1011.3
2022-11-20T01:34:04.239Z,1011.3
2022-11-20T01:35:01.230Z,1011.3
2022-11-20T01:36:07.534Z,1011.3
2022-11-20T01:37:00.928Z,1011.4
2022-11-20T01:38:00.926Z,1011.4
2022-11-20T01:39:05.531Z,1011.4
2022-11-20T01:40:01.232Z,1011.4
2022-11-20T01:41:01.277Z,1011.4
2022-11-20T01:42:04.525Z,1011.3
2022-11-20T01:43:13.618Z,1011.3
2022-11-20T01:44:02.732Z,1011.2
2022-11-20T01:45:01.563Z,1011.2
2022-11-20T01:46:05.077Z,1011.2
2022-11-20T01:47:04.958Z,1011.3
2022-11-20T01:48:00.974Z,1011.2
2022-11-20T01:49:04.275Z,1011.2
2022-11-20T01:50:06.469Z,1011.2
2022-11-20T01:51:02.926Z,1011.2
2022-11-20T01:52:05.553Z,1011.2
2022-11-20T01:53:05.302Z,1011.1
2022-11-20T01:54:05.963Z,1011.1
2022-11-20T01:55:07.036Z,1011.1
2022-11-20T01:56:03.026Z,1011.1
2022-11-20T01:57:01.990Z,1011.1
2022-11-20T01:58:03.105Z,1011.1
2022-11-20T01:59:04.127Z,1011.1
2022-11-20T02:00:05.786Z,1011.1
2022-11-20T02:01:01.429Z,1011.1
2022-11-20T02:02:00.945Z,1011.1
2022-11-20T02:03:06.722Z,1011.1
2022-11-20T02:04:01.831Z,1011.2
2022-11-20T02:05:09.594Z,1011.2
2022-11-20T02:06:08.944Z,1011.1
2022-11-20T02:07:04.243Z,1011.1
2022-11-20T02:08:04.629Z,1011.1
2022-11-20T02:09:01.461Z,1011.1
2022-11-20T02:10:01.713Z,1011.2
2022-11-20T02:11:01.227Z,1011.1
2022-11-20T02:12:01.731Z,1011.1
2022-11-20T02:13:01.507Z,1011.1
2022-11-20T02:14:01.213Z,1011.1
2022-11-20T02:15:01.550Z,1011.1
2022-11-20T02:16:02.122Z,1011.1
2022-11-20T02:17:01.311Z,1011.2
2022-11-20T02:18:01.667Z,1011.1
2022-11-20T02:19:04.195Z,1011.1
2022-11-20T02:20:01.438Z,1011.0
2022-11-20T02:21:07.409Z,1011.0
2022-11-20T02:22:08.382Z,1011.0
2022-11-20T02:23:08.816Z,1011.0
2022-11-20T02:24:05.991Z,1011.0
2022-11-20T02:25:04.035Z,1011.0
2022-11-20T02:26:04.487Z,1011.0
2022-11-20T02:27:04.917Z,1010.9
2022-11-20T02:28:02.193Z,1010.9
2022-11-20T02:29:02.704Z,1010.9
2022-11-20T02:30:04.058Z,1010.8
2022-11-20T02:31:01.447Z,1010.8
2022-11-20T02:32:02.214Z,1010.8
2022-11-20T02:33:01.224Z,1010.7
2022-11-20T02:34:00.944Z,1010.7
2022-11-20T02:35:08.158Z,1010.7
2022-11-20T02:36:01.515Z,1010.7
2022-11-20T02:37:01.622Z,1010.7
2022-11-20T02:38:02.876Z,1010.6
2022-11-20T02:39:01.676Z,1010.7
2022-11-20T02:40:01.365Z,1010.7
2022-11-20T02:41:01.236Z,1010.8
2022-11-20T02:42:02.246Z,1010.7
2022-11-20T02:43:00.956Z,1010.8
2022-11-20T02:44:01.439Z,1010.8
2022-11-20T02:45:00.922Z,1010.8
2022-11-20T02:46:00.939Z,1010.8
2022-11-20T02:47:01.428Z,1010.8
2022-11-20T02:48:00.987Z,1010.8
2022-11-20T02:49:02.929Z,1010.8
2022-11-20T02:50:01.489Z,1010.8
2022-11-20T02:51:01.072Z,1010.8
2022-11-20T02:52:01.495Z,1010.8
2022-11-20T02:53:01.136Z,1010.8
2022-11-20T02:54:01.257Z,1010.8
2022-11-20T02:55:00.990Z,1010.8
2022-11-20T02:56:01.297Z,1010.8
2022-11-20T02:57:01.237Z,1010.7
2022-11-20T02:58:00.923Z,1010.7
2022-11-20T02:59:01.225Z,1010.8
2022-11-20T03:00:00.984Z,1010.8
2022-11-20T03:01:01.309Z,1010.8
2022-11-20T03:02:01.235Z,1010.9
2022-11-20T03:03:00.945Z,1010.9
2022-11-20T03:04:01.689Z,1011.0
2022-11-20T03:05:01.349Z,1010.9
2022-11-20T03:06:01.224Z,1010.9
2022-11-20T03:07:01.893Z,1011.0
2022-11-20T03:08:01.226Z,1010.9
2022-11-20T03:09:01.102Z,1010.8
2022-11-20T03:10:01.049Z,1010.8
2022-11-20T03:11:04.451Z,1010.8
2022-11-20T03:12:01.242Z,1010.8
2022-11-20T03:13:01.233Z,1010.7
2022-11-20T03:14:02.133Z,1010.7
2022-11-20T03:15:01.189Z,1010.7
2022-11-20T03:16:05.272Z,1010.7
2022-11-20T03:17:01.228Z,1010.7
2022-11-20T03:18:01.224Z,1010.7
2022-11-20T03:19:01.278Z,1010.7
2022-11-20T03:20:01.278Z,1010.7
2022-11-20T03:21:01.339Z,1010.8
2022-11-20T03:22:01.081Z,1010.7
2022-11-20T03:23:01.998Z,1010.6
2022-11-20T03:24:01.312Z,1010.6
2022-11-20T03:25:00.921Z,1010.5
2022-11-20T03:26:10.963Z,1010.6
2022-11-20T03:27:00.923Z,1010.6
2022-11-20T03:28:00.936Z,1010.6
2022-11-20T03:29:03.037Z,1010.5
2022-11-20T03:30:01.059Z,1010.5
2022-11-20T03:31:05.327Z,1010.6
2022-11-20T03:32:00.942Z,1010.6
2022-11-20T03:33:00.948Z,1010.6
2022-11-20T03:34:02.398Z,1010.6
2022-11-20T03:35:01.235Z,1010.6
2022-11-20T03:36:03.266Z,1010.6
2022-11-20T03:37:01.093Z,1010.7
2022-11-20T03:38:00.925Z,1010.6
2022-11-20T03:39:01.600Z,1010.6
2022-11-20T03:40:01.241Z,1010.6
2022-11-20T03:41:02.743Z,1010.6
2022-11-20T03:42:01.222Z,1010.6
2022-11-20T03:43:00.907Z,1010.6
2022-11-20T03:44:03.309Z,1010.6
2022-11-20T03:45:01.214Z,1010.6
2022-11-20T03:46:01.732Z,1010.5
2022-11-20T03:47:00.939Z,1010.5
2022-11-20T03:48:01.109Z,1010.5
2022-11-20T03:49:02.029Z,1010.5
2022-11-20T03:50:00.935Z,1010.5
2022-11-20T03:51:10.216Z,1010.5
2022-11-20T03:52:01.241Z,1010.5
2022-11-20T03:53:01.215Z,1010.5
2022-11-20T03:54:03.845Z,1010.5
2022-11-20T03:55:00.978Z,1010.5
2022-11-20T03:56:01.321Z,1010.5
2022-11-20T03:57:00.935Z,1010.5
2022-11-20T03:58:00.935Z,1010.5
2022-11-20T03:59:01.743Z,1010.5
2022-11-20T04:00:01.310Z,1010.4
2022-11-20T04:01:06.805Z,1010.4
2022-11-20T04:02:01.308Z,1010.4
2022-11-20T04:03:02.506Z,1010.3
2022-11-20T04:04:01.188Z,1010.4
2022-11-20T04:05:00.956Z,1010.3
2022-11-20T04:06:03.707Z,1010.3
2022-11-20T04:07:00.995Z,1010.3
2022-11-20T04:08:00.937Z,1010.3
2022-11-20T04:09:01.246Z,1010.2
2022-11-20T04:10:01.156Z,1010.2
2022-11-20T04:11:10.032Z,1010.2
2022-11-20T04:12:01.238Z,1010.2
2022-11-20T04:13:01.213Z,1010.2
2022-11-20T04:14:03.084Z,1010.1
2022-11-20T04:15:01.353Z,1010.1
2022-11-20T04:16:00.941Z,1010.1
2022-11-20T04:17:00.922Z,1010.1
2022-11-20T04:18:00.929Z,1010.0
2022-11-20T04:19:04.253Z,1010.1
2022-11-20T04:20:01.340Z,1010.0
2022-11-20T04:21:01.533Z,1010.0
2022-11-20T04:22:01.014Z,1010.0
2022-11-20T04:23:00.938Z,1010.0
2022-11-20T04:24:01.649Z,1010.0
2022-11-20T04:25:01.253Z,1010.0
2022-11-20T04:26:02.348Z,1010.0
2022-11-20T04:27:01.228Z,1010.0
2022-11-20T04:28:01.213Z,1010.0
2022-11-20T04:29:01.565Z,1010.0
2022-11-20T04:30:00.924Z,1010.0
2022-11-20T04:31:04.426Z,1010.0
2022-11-20T04:32:01.309Z,1010.0
2022-11-20T04:33:00.936Z,1009.9
2022-11-20T04:34:03.313Z,1009.9
2022-11-20T04:35:01.211Z,1010.0
2022-11-20T04:36:02.900Z,1009.9
2022-11-20T04:37:01.380Z,1010.0
2022-11-20T04:38:01.440Z,1009.9
2022-11-20T04:39:03.702Z,1010.0
2022-11-20T04:40:00.917Z,1010.0
2022-11-20T04:41:03.195Z,1010.0
2022-11-20T04:42:00.927Z,1009.9
2022-11-20T04:43:01.130Z,1009.9
2022-11-20T04:44:03.731Z,1009.9
2022-11-20T04:45:01.257Z,1009.9
2022-11-20T04:46:01.942Z,1009.9
2022-11-20T04:47:00.937Z,1009.9
2022-11-20T04:48:00.922Z,1009.9
2022-11-20T04:49:01.383Z,1009.9
2022-11-20T04:50:01.317Z,1009.9
2022-11-20T04:51:03.529Z,1009.9
2022-11-20T04:52:00.942Z,1009.9
2022-11-20T04:53:00.934Z,1009.9
2022-11-20T04:54:01.894Z,1009.9
2022-11-20T04:55:00.945Z,1009.8
2022-11-20T04:56:02.155Z,1009.8
2022-11-20T04:57:01.232Z,1009.7
2022-11-20T04:58:00.913Z,1009.7
2022-11-20T04:59:01.721Z,1009.6
2022-11-20T05:00:01.265Z,1009.6
2022-11-20T05:01:01.927Z,1009.6
2022-11-20T05:02:00.943Z,1009.6
2022-11-20T05:03:00.972Z,1009.6
2022-11-20T05:04:00.930Z,1009.6
2022-11-20T05:05:01.235Z,1009.5
2022-11-20T05:06:02.119Z,1009.5
2022-11-20T05:07:01.296Z,1009.5
2022-11-20T05:08:01.619Z,1009.4
2022-11-20T05:09:00.927Z,1009.5
2022-11-20T05:10:00.960Z,1009.4
2022-11-20T05:11:02.334Z,1009.4
2022-11-20T05:12:00.934Z,1009.4
2022-11-20T05:13:01.226Z,1009.4
2022-11-20T05:14:00.915Z,1009.4
2022-11-20T05:15:01.234Z,1009.3
2022-11-20T05:16:02.654Z,1009.3
2022-11-20T05:17:00.973Z,1009.3
2022-11-20T05:18:01.251Z,1009.3
2022-11-20T05:19:01.240Z,1009.2
2022-11-20T05:20:01.212Z,1009.3
2022-11-20T05:21:01.404Z,1009.2
2022-11-20T05:22:00.920Z,1009.2
2022-11-20T05:23:01.207Z,1009.2
2022-11-20T05:24:00.972Z,1009.2
2022-11-20T05:25:01.273Z,1009.2
2022-11-20T05:26:01.918Z,1009.2
2022-11-20T05:27:01.227Z,1009.1
2022-11-20T05:28:01.269Z,1009.1
2022-11-20T05:29:01.216Z,1009.1
2022-11-20T05:30:01.284Z,1009.0
2022-11-20T05:31:05.930Z,1009.0
2022-11-20T05:32:00.942Z,1009.0
2022-11-20T05:33:00.948Z,1009.0
2022-11-20T05:34:01.211Z,1009.0
2022-11-20T05:35:01.313Z,1009.0
2022-11-20T05:36:02.108Z,1009.0
2022-11-20T05:37:00.969Z,1009.0
2022-11-20T05:38:01.084Z,1009.0
2022-11-20T05:39:01.709Z,1008.9
2022-11-20T05:40:00.952Z,1008.9
2022-11-20T05:41:04.902Z,1008.9
2022-11-20T05:42:00.924Z,1008.9
2022-11-20T05:43:01.950Z,1008.9
2022-11-20T05:44:01.238Z,1008.9
2022-11-20T05:45:03.071Z,1008.8
2022-11-20T05:46:01.299Z,1008.8
2022-11-20T05:47:00.927Z,1008.7
2022-11-20T05:48:01.745Z,1008.7
2022-11-20T05:49:01.596Z,1008.8
2022-11-20T05:50:01.368Z,1008.8
2022-11-20T05:51:03.580Z,1008.8
2022-11-20T05:52:00.966Z,1008.7
2022-11-20T05:53:01.437Z,1008.7
2022-11-20T05:54:01.226Z,1008.7
2022-11-20T05:55:00.936Z,1008.7
2022-11-20T05:56:02.712Z,1008.7
2022-11-20T05:57:01.254Z,1008.7
2022-11-20T05:58:00.917Z,1008.7
2022-11-20T05:59:01.240Z,1008.7
2022-11-20T06:00:01.487Z,1008.7
2022-11-20T06:01:05.283Z,1008.6
2022-11-20T06:02:00.913Z,1008.6
2022-11-20T06:03:01.365Z,1008.6
2022-11-20T06:04:00.914Z,1008.6
2022-11-20T06:05:01.319Z,1008.6
2022-11-20T06:06:02.109Z,1008.5
2022-11-20T06:07:01.308Z,1008.5
2022-11-20T06:08:01.352Z,1008.5
2022-11-20T06:09:00.951Z,1008.5
2022-11-20T06:10:00.930Z,1008.4
2022-11-20T06:11:03.938Z,1008.4
2022-11-20T06:12:01.291Z,1008.5
2022-11-20T06:13:01.240Z,1008.4
2022-11-20T06:14:01.230Z,1008.4
2022-11-20T06:15:01.209Z,1008.4
2022-11-20T06:16:01.479Z,1008.4
2022-11-20T06:17:01.418Z,1008.4
2022-11-20T06:18:01.260Z,1008.4
2022-11-20T06:19:01.259Z,1008.4
2022-11-20T06:20:01.418Z,1008.3
2022-11-20T06:21:02.849Z,1008.3
2022-11-20T06:22:01.182Z,1008.2
2022-11-20T06:23:00.937Z,1008.2
2022-11-20T06:24:00.930Z,1008.2
2022-11-20T06:25:00.942Z,1008.2
2022-11-20T06:26:03.447Z,1008.2
2022-11-20T06:27:01.223Z,1008.2
2022-11-20T06:28:00.937Z,1008.2
2022-11-20T06:29:01.027Z,1008.2
2022-11-20T06:30:01.231Z,1008.2
2022-11-20T06:31:01.607Z,1008.1
2022-11-20T06:32:01.277Z,1008.1
2022-11-20T06:33:02.027Z,1008.1
2022-11-20T06:34:01.594Z,1008.1
2022-11-20T06:35:00.938Z,1008.1
2022-11-20T06:36:05.856Z,1008.1
2022-11-20T06:37:01.275Z,1008.1
2022-11-20T06:38:00.926Z,1008.0
2022-11-20T06:39:01.455Z,1008.0
2022-11-20T06:40:00.931Z,1008.0
2022-11-20T06:41:01.267Z,1007.9
2022-11-20T06:42:01.605Z,1007.9
2022-11-20T06:43:00.945Z,1007.9
2022-11-20T06:44:01.270Z,1007.8
2022-11-20T06:45:00.942Z,1007.8
2022-11-20T06:46:00.973Z,1007.7
2022-11-20T06:47:00.930Z,1007.8
2022-11-20T06:48:00.911Z,1007.7
2022-11-20T06:49:01.227Z,1007.7
2022-11-20T06:50:01.335Z,1007.7
2022-11-20T06:51:03.291Z,1007.7
2022-11-20T06:52:01.237Z,1007.7
2022-11-20T06:53:02.354Z,1007.7
2022-11-20T06:54:01.210Z,1007.7
2022-11-20T06:55:01.127Z,1007.7
2022-11-20T06:56:01.246Z,1007.7
2022-11-20T06:57:01.238Z,1007.7
2022-11-20T06:58:00.933Z,1007.7
2022-11-20T06:59:03.952Z,1007.7
2022-11-20T07:00:00.955Z,1007.7
2022-11-20T07:01:03.507Z,1007.6
2022-11-20T07:02:01.270Z,1007.6
2022-11-20T07:03:02.993Z,1007.6
2022-11-20T07:04:01.255Z,1007.6
2022-11-20T07:05:01.224Z,1007.6
2022-11-20T07:06:02.445Z,1007.6
2022-11-20T07:07:00.968Z,1007.6
2022-11-20T07:08:01.942Z,1007.6
2022-11-20T07:09:00.933Z,1007.5
2022-11-20T07:10:00.949Z,1007.5
2022-11-20T07:11:03.347Z,1007.5
2022-11-20T07:12:01.214Z,1007.5
2022-11-20T07:13:01.410Z,1007.4
2022-11-20T07:14:01.277Z,1007.4
2022-11-20T07:15:00.931Z,1007.5
2022-11-20T07:16:02.853Z,1007.4
2022-11-20T07:17:01.203Z,1007.4
2022-11-20T07:18:01.579Z,1007.4
2022-11-20T07:19:00.932Z,1007.4
2022-11-20T07:20:01.220Z,1007.4
2022-11-20T07:21:02.004Z,1007.3
2022-11-20T07:22:00.924Z,1007.3
2022-11-20T07:23:01.362Z,1007.3
2022-11-20T07:24:00.925Z,1007.3
2022-11-20T07:25:02.086Z,1007.3
2022-11-20T07:26:03.988Z,1007.3
2022-11-20T07:27:01.247Z,1007.4
2022-11-20T07:28:01.590Z,1007.3
2022-11-20T07:29:00.970Z,1007.3
2022-11-20T07:30:01.052Z,1007.4
2022-11-20T07:31:01.326Z,1007.4
2022-11-20T07:32:01.080Z,1007.3
2022-11-20T07:33:01.242Z,1007.3
2022-11-20T07:34:01.070Z,1007.2
2022-11-20T07:35:00.962Z,1007.3
2022-11-20T07:36:01.565Z,1007.2
2022-11-20T07:37:04.823Z,1007.2
2022-11-20T07:38:01.211Z,1007.2
2022-11-20T07:39:01.524Z,1007.2
2022-11-20T07:40:00.949Z,1007.2
2022-11-20T07:41:00.942Z,1007.2
2022-11-20T07:42:00.911Z,1007.1
2022-11-20T07:43:01.258Z,1007.1
2022-11-20T07:44:01.402Z,1007.1
2022-11-20T07:45:01.228Z,1007.0
2022-11-20T07:46:01.237Z,1007.0
2022-11-20T07:47:01.905Z,1007.0
2022-11-20T07:48:00.949Z,1007.0
2022-11-20T07:49:00.924Z,1007.0
2022-11-20T07:50:01.211Z,1007.0
2022-11-20T07:51:01.044Z,1007.0
2022-11-20T07:52:04.721Z,1007.0
2022-11-20T07:53:02.392Z,1007.0
2022-11-20T07:54:01.018Z,1006.9
2022-11-20T07:55:01.215Z,1006.9
2022-11-20T07:56:01.831Z,1006.9
2022-11-20T07:57:00.922Z,1006.9
2022-11-20T07:58:01.235Z,1006.8
2022-11-20T07:59:01.226Z,1006.8
2022-11-20T08:00:00.933Z,1006.8
2022-11-20T08:01:05.906Z,1006.8
2022-11-20T08:02:00.901Z,1006.8
2022-11-20T08:03:03.443Z,1006.7
2022-11-20T08:04:00.913Z,1006.7
2022-11-20T08:05:00.946Z,1006.6
2022-11-20T08:06:02.045Z,1006.6
2022-11-20T08:07:01.006Z,1006.6
2022-11-20T08:08:00.921Z,1006.6
2022-11-20T08:09:01.236Z,1006.7
2022-11-20T08:10:01.287Z,1006.6
2022-11-20T08:11:01.286Z,1006.6
2022-11-20T08:12:01.519Z,1006.6
2022-11-20T08:13:00.903Z,1006.6
2022-11-20T08:14:00.970Z,1006.6
2022-11-20T08:15:00.985Z,1006.7
2022-11-20T08:16:01.350Z,1006.7
2022-11-20T08:17:00.929Z,1006.7
2022-11-20T08:18:28.917Z,1006.7
2022-11-20T08:19:01.207Z,1006.8
2022-11-20T08:20:01.232Z,1006.7
2022-11-20T08:21:03.153Z,1006.7
2022-11-20T08:22:01.244Z,1006.7
2022-11-20T08:23:02.468Z,1006.7
2022-11-20T08:24:00.929Z,1006.7
2022-11-20T08:25:01.101Z,1006.6
2022-11-20T08:26:00.924Z,1006.6
2022-11-20T08:27:00.921Z,1006.6
2022-11-20T08:28:10.295Z,1006.5
2022-11-20T08:29:01.251Z,1006.5
2022-11-20T08:30:01.221Z,1006.5
2022-11-20T08:31:02.832Z,1006.5
2022-11-20T08:32:01.236Z,1006.4
2022-11-20T08:33:03.480Z,1006.4
2022-11-20T08:34:04.925Z,1006.4
2022-11-20T08:35:01.231Z,1006.5
2022-11-20T08:36:02.052Z,1006.5
2022-11-20T08:37:02.044Z,1006.5
2022-11-20T08:38:01.306Z,1006.5
2022-11-20T08:39:01.270Z,1006.5
2022-11-20T08:40:01.223Z,1006.5
2022-11-20T08:41:03.543Z,1006.5
2022-11-20T08:42:00.911Z,1006.4
2022-11-20T08:43:01.225Z,1006.4
2022-11-20T08:44:03.111Z,1006.3
2022-11-20T08:45:01.169Z,1006.3
2022-11-20T08:46:00.947Z,1006.3
2022-11-20T08:47:01.438Z,1006.3
2022-11-20T08:48:02.012Z,1006.3
2022-11-20T08:49:01.053Z,1006.3
2022-11-20T08:50:00.932Z,1006.3
2022-11-20T08:51:00.968Z,1006.2
2022-11-20T08:52:00.947Z,1006.2
2022-11-20T08:53:02.867Z,1006.1
2022-11-20T08:54:01.461Z,1006.2
2022-11-20T08:55:00.949Z,1006.1
2022-11-20T08:56:01.681Z,1006.1
2022-11-20T08:57:00.925Z,1006.1
2022-11-20T08:58:04.435Z,1006.0
2022-11-20T08:59:27.063Z,1006.0
2022-11-20T09:00:06.524Z,1005.9
2022-11-20T09:01:01.586Z,1005.9
2022-11-20T09:02:01.241Z,1005.9
2022-11-20T09:03:01.940Z,1005.9
2022-11-20T09:04:00.946Z,1005.9
2022-11-20T09:05:01.229Z,1005.8
2022-11-20T09:06:03.703Z,1005.8
2022-11-20T09:07:01.465Z,1005.8
2022-11-20T09:08:01.246Z,1005.7
2022-11-20T09:09:06.331Z,1005.6
2022-11-20T09:10:22.633Z,1005.5
2022-11-20T09:11:01.238Z,1005.5
2022-11-20T09:12:00.911Z,1005.4
2022-11-20T09:13:01.354Z,1005.3
2022-11-20T09:14:01.237Z,1005.2
2022-11-20T09:15:00.906Z,1005.1
2022-11-20T09:16:02.923Z,1005.0
2022-11-20T09:17:01.284Z,1005.2
2022-11-20T09:18:03.110Z,1005.2
2022-11-20T09:19:20.663Z,1005.2
2022-11-20T09:20:00.935Z,1005.2
2022-11-20T09:21:03.950Z,1005.2
2022-11-20T09:22:00.911Z,1005.3
2022-11-20T09:23:01.233Z,1005.3
2022-11-20T09:24:00.942Z,1005.3
2022-11-20T09:25:00.931Z,1005.3
2022-11-20T09:26:03.457Z,1005.3
2022-11-20T09:27:03.903Z,1005.3
2022-11-20T09:28:01.227Z,1005.3
2022-11-20T09:29:01.081Z,1005.4
2022-11-20T09:30:00.941Z,1005.3
2022-11-20T09:31:04.680Z,1005.2
2022-11-20T09:32:01.237Z,1005.2
2022-11-20T09:33:01.329Z,1005.2
2022-11-20T09:34:01.233Z,1005.2
2022-11-20T09:36:01.429Z,1005.1
2022-11-20T09:37:04.518Z,1005.2
2022-11-20T09:38:06.084Z,1005.2
2022-11-20T09:39:01.090Z,1005.2
2022-11-20T09:40:01.227Z,1005.1
2022-11-20T09:41:05.174Z,1005.1
2022-11-20T09:42:20.396Z,1005.1
2022-11-20T09:43:07.317Z,1005.1
2022-11-20T09:44:13.475Z,1005.1
2022-11-20T09:45:15.704Z,1005.2
2022-11-20T09:46:08.063Z,1005.2
2022-11-20T09:47:08.295Z,1005.2
2022-11-20T09:48:16.563Z,1005.1
2022-11-20T09:49:20.487Z,1005.1
2022-11-20T09:50:17.334Z,1005.1
2022-11-20T09:51:08.878Z,1005.1
2022-11-20T09:52:12.966Z,1005.2
2022-11-20T09:53:13.714Z,1005.1
2022-11-20T09:54:15.119Z,1005.1
2022-11-20T09:55:03.904Z,1005.0
2022-11-20T09:56:03.052Z,1005.0
2022-11-20T09:57:11.706Z,1005.0
2022-11-20T09:58:01.243Z,1005.0
2022-11-20T09:59:06.676Z,1005.1
2022-11-20T10:00:04.249Z,1005.0
2022-11-20T10:01:09.760Z,1005.0
2022-11-20T10:02:11.831Z,1005.1
2022-11-20T10:03:06.331Z,1005.1
2022-11-20T10:04:04.824Z,1005.1
2022-11-20T10:05:06.418Z,1005.1
2022-11-20T10:06:03.858Z,1005.1
2022-11-20T10:07:31.884Z,1005.1
2022-11-20T10:08:10.857Z,1005.1
2022-11-20T10:09:16.101Z,1005.1
2022-11-20T10:10:01.315Z,1005.0
2022-11-20T10:11:09.488Z,1005.0
2022-11-20T10:12:15.686Z,1005.0
2022-11-20T10:13:17.494Z,1005.0
2022-11-20T10:14:12.464Z,1005.0
2022-11-20T10:15:16.513Z,1005.0
2022-11-20T10:16:15.007Z,1005.0
2022-11-20T10:17:11.995Z,1005.0
2022-11-20T10:18:16.811Z,1005.0
2022-11-20T10:19:14.697Z,1005.0
2022-11-20T10:20:16.351Z,1005.1
2022-11-20T10:21:12.323Z,1005.1
2022-11-20T10:22:11.716Z,1005.1
2022-11-20T10:23:25.431Z,1005.0
2022-11-20T10:24:20.393Z,1005.1
2022-11-20T10:25:11.316Z,1005.1
2022-11-20T10:26:03.617Z,1005.1
2022-11-20T10:27:09.234Z,1005.0
2022-11-20T10:28:18.234Z,1004.9
2022-11-20T10:29:11.417Z,1004.9
2022-11-20T10:30:08.139Z,1004.8
2022-11-20T10:31:04.605Z,1004.8
2022-11-20T10:32:04.466Z,1004.8
2022-11-20T10:33:06.808Z,1004.9
2022-11-20T10:34:12.164Z,1004.9
2022-11-20T10:35:10.091Z,1004.9
2022-11-20T10:36:08.207Z,1004.9
2022-11-20T10:37:06.950Z,1004.9
2022-11-20T10:38:05.686Z,1004.9
2022-11-20T10:39:06.942Z,1004.8
2022-11-20T10:40:06.007Z,1004.8
2022-11-20T10:41:03.176Z,1004.9
2022-11-20T10:42:01.517Z,1004.9
2022-11-20T10:43:03.353Z,1004.9
2022-11-20T10:44:05.126Z,1005.0
2022-11-20T10:45:15.806Z,1005.0
2022-11-20T10:46:07.068Z,1005.0
2022-11-20T10:47:01.397Z,1005.0
2022-11-20T10:48:12.721Z,1004.9
2022-11-20T10:49:00.931Z,1005.0
2022-11-20T10:50:05.567Z,1005.0
2022-11-20T10:51:15.854Z,1005.1
2022-11-20T10:52:12.850Z,1005.1
2022-11-20T10:53:09.244Z,1005.1
2022-11-20T10:54:17.867Z,1005.1
2022-11-20T10:55:18.374Z,1005.2
2022-11-20T10:56:07.809Z,1005.2
2022-11-20T10:57:13.478Z,1005.2
2022-11-20T10:58:10.452Z,1005.2
2022-11-20T10:59:20.697Z,1005.2
2022-11-20T11:00:05.591Z,1005.2
2022-11-20T11:01:04.805Z,1005.3
2022-11-20T11:02:03.323Z,1005.3
2022-11-20T11:03:01.378Z,1005.4
2022-11-20T11:04:01.554Z,1005.3
2022-11-20T11:05:14.263Z,1005.3
2022-11-20T11:06:08.240Z,1005.3
2022-11-20T11:07:10.486Z,1005.3
2022-11-20T11:08:03.436Z,1005.3
2022-11-20T11:09:09.119Z,1005.3
2022-11-20T11:10:01.328Z,1005.3
2022-11-20T11:11:12.008Z,1005.3
2022-11-20T11:12:06.799Z,1005.3
2022-11-20T11:13:00.930Z,1005.3
2022-11-20T11:14:09.943Z,1005.3
2022-11-20T11:15:01.257Z,1005.3
2022-11-20T11:16:03.154Z,1005.4
2022-11-20T11:17:01.223Z,1005.3
2022-11-20T11:18:01.256Z,1005.3
2022-11-20T11:19:05.376Z,1005.3
2022-11-20T11:20:04.995Z,1005.3
2022-11-20T11:21:03.710Z,1005.3
2022-11-20T11:22:11.511Z,1005.2
2022-11-20T11:23:01.237Z,1005.2
2022-11-20T11:24:19.862Z,1005.3
2022-11-20T11:25:01.476Z,1005.2
2022-11-20T11:26:03.582Z,1005.2
2022-11-20T11:27:03.646Z,1005.2
2022-11-20T11:28:03.485Z,1005.2
2022-11-20T11:29:04.365Z,1005.2
2022-11-20T11:30:13.277Z,1005.2
2022-11-20T11:31:00.942Z,1005.2
2022-11-20T11:32:06.657Z,1005.2
2022-11-20T11:33:05.595Z,1005.2
2022-11-20T11:34:04.591Z,1005.2
2022-11-20T11:35:03.520Z,1005.2
2022-11-20T11:36:03.694Z,1005.2
2022-11-20T11:37:02.700Z,1005.2
2022-11-20T11:38:06.222Z,1005.2
2022-11-20T11:39:02.709Z,1005.2
2022-11-20T11:40:23.467Z,1005.2
2022-11-20T11:41:02.659Z,1005.2
2022-11-20T11:42:01.902Z,1005.2
2022-11-20T11:43:04.574Z,1005.2
2022-11-20T11:44:13.837Z,1005.2
2022-11-20T11:45:01.232Z,1005.2
2022-11-20T11:46:01.122Z,1005.2
2022-11-20T11:47:03.212Z,1005.1
2022-11-20T11:48:03.922Z,1005.2
2022-11-20T11:49:12.087Z,1005.3
2022-11-20T11:50:01.720Z,1005.3
2022-11-20T11:51:00.957Z,1005.3
2022-11-20T11:52:09.031Z,1005.4
2022-11-20T11:53:12.644Z,1005.4
2022-11-20T11:54:05.457Z,1005.4
2022-11-20T11:55:10.214Z,1005.4
2022-11-20T11:56:08.907Z,1005.4
2022-11-20T11:57:05.936Z,1005.4
2022-11-20T11:58:11.408Z,1005.4
2022-11-20T11:59:06.895Z,1005.4
2022-11-20T12:00:04.827Z,1005.4
2022-11-20T12:01:10.497Z,1005.4
2022-11-20T12:02:12.467Z,1005.5
2022-11-20T12:03:09.310Z,1005.5
2022-11-20T12:04:06.097Z,1005.5
2022-11-20T12:05:12.743Z,1005.5
2022-11-20T12:06:09.165Z,1005.5
2022-11-20T12:07:39.276Z,1005.5
2022-11-20T12:08:12.134Z,1005.6
2022-11-20T12:09:04.743Z,1005.6
2022-11-20T12:10:02.521Z,1005.6
2022-11-20T12:11:11.736Z,1005.6
2022-11-20T12:12:10.580Z,1005.6
2022-11-20T12:13:14.295Z,1005.6
2022-11-20T12:14:10.315Z,1005.6
2022-11-20T12:15:02.638Z,1005.7
2022-11-20T12:16:02.792Z,1005.7
2022-11-20T12:17:02.322Z,1005.8
2022-11-20T12:18:01.214Z,1005.8
2022-11-20T12:19:01.360Z,1005.7
2022-11-20T12:20:00.930Z,1005.7
2022-11-20T12:21:15.893Z,1005.8
2022-11-20T12:22:13.808Z,1005.7
2022-11-20T12:23:09.865Z,1005.8
2022-11-20T12:24:17.065Z,1005.9
2022-11-20T12:25:07.986Z,1005.8
2022-11-20T12:26:10.496Z,1005.9
2022-11-20T12:27:14.345Z,1005.9
2022-11-20T12:28:20.402Z,1005.8
2022-11-20T12:29:09.331Z,1005.9